createdAt,value
2022-10-23T00:01:26.525Z,100773.13
2022-10-23T00:04:01.775Z,100771.38
2022-10-23T00:06:29.691Z,100773.22
2022-10-23T00:08:56.472Z,100775.00
2022-10-23T00:11:25.395Z,100775.03
2022-10-23T00:13:54.519Z,100778.47
2022-10-23T00:16:21.187Z,100778.44
2022-10-23T00:18:47.825Z,100772.38
2022-10-23T00:21:15.875Z,100767.03
2022-10-23T00:23:42.731Z,100757.44
2022-10-23T00:26:11.348Z,100762.63
2022-10-23T00:28:38.270Z,100766.19
2022-10-23T00:31:05.688Z,100765.31
2022-10-23T00:33:33.078Z,100760.97
2022-10-23T00:35:59.987Z,100756.72
2022-10-23T00:38:26.470Z,100763.75
2022-10-23T00:40:52.913Z,100759.38
2022-10-23T00:43:26.581Z,100769.03
2022-10-23T00:45:53.569Z,100765.47
2022-10-23T00:48:20.465Z,100777.75
2022-10-23T00:50:49.240Z,100773.28
2022-10-23T00:53:18.339Z,100765.53
2022-10-23T00:55:47.123Z,100761.13
2022-10-23T00:58:15.091Z,100761.06
2022-10-23T01:00:48.577Z,100753.91
2022-10-23T01:03:17.795Z,100745.13
2022-10-23T01:06:06.989Z,100734.59
2022-10-23T01:08:42.558Z,100742.34
2022-10-23T01:11:28.907Z,100743.22
2022-10-23T01:16:52.439Z,100738.84
2022-10-23T01:19:46.387Z,100743.97
2022-10-23T01:22:30.827Z,100737.84
2022-10-23T01:25:34.401Z,100747.50
2022-10-23T01:28:05.367Z,100746.59
2022-10-23T01:30:34.094Z,100742.25
2022-10-23T01:33:08.159Z,100741.34
2022-10-23T01:35:40.960Z,100739.56
2022-10-23T01:38:35.730Z,100731.66
2022-10-23T01:41:17.832Z,100728.94
2022-10-23T01:43:51.672Z,100716.63
2022-10-23T01:46:18.454Z,100708.81
2022-10-23T01:48:56.101Z,100693.91
2022-10-23T01:51:26.979Z,100702.59
2022-10-23T01:53:57.391Z,100696.34
2022-10-23T01:56:28.757Z,100693.63
2022-10-23T01:58:58.290Z,100697.16
2022-10-23T02:01:27.953Z,100697.97
2022-10-23T02:04:00.315Z,100691.00
2022-10-23T02:06:26.846Z,100695.34
2022-10-23T02:08:53.271Z,100686.56
2022-10-23T02:11:21.780Z,100676.06
2022-10-23T02:13:59.792Z,100684.69
2022-10-23T02:16:37.348Z,100683.75
2022-10-23T02:19:30.006Z,100679.28
2022-10-23T02:22:06.543Z,100677.56
2022-10-23T02:24:36.201Z,100671.47
2022-10-23T02:27:10.236Z,100667.97
2022-10-23T02:29:42.785Z,100668.75
2022-10-23T02:32:11.263Z,100666.22
2022-10-23T02:34:37.957Z,100668.03
2022-10-23T02:37:04.586Z,100654.97
2022-10-23T02:39:31.100Z,100655.81
2022-10-23T02:42:09.259Z,100642.69
2022-10-23T02:45:00.158Z,100642.69
2022-10-23T02:47:47.013Z,100633.91
2022-10-23T02:50:22.089Z,100633.00
2022-10-23T02:53:13.398Z,100632.94
2022-10-23T02:56:11.085Z,100638.19
2022-10-23T02:58:42.176Z,100634.72
2022-10-23T03:01:14.977Z,100630.44
2022-10-23T03:04:03.024Z,100625.19
2022-10-23T03:06:29.420Z,100626.00
2022-10-23T03:09:04.838Z,100625.97
2022-10-23T03:11:31.279Z,100615.47
2022-10-23T03:13:57.733Z,100624.22
2022-10-23T03:16:24.882Z,100621.59
2022-10-23T03:18:51.405Z,100615.38
2022-10-23T03:21:17.867Z,100612.75
2022-10-23T03:23:44.325Z,100608.41
2022-10-23T03:26:10.822Z,100601.44
2022-10-23T03:28:37.307Z,100593.56
2022-10-23T03:31:04.030Z,100590.94
2022-10-23T03:33:31.648Z,100583.97
2022-10-23T03:35:58.073Z,100580.50
2022-10-23T03:38:24.510Z,100576.16
2022-10-23T03:40:51.038Z,100578.81
2022-10-23T03:43:17.466Z,100571.91
2022-10-23T03:45:43.915Z,100575.50
2022-10-23T03:48:10.770Z,100571.16
2022-10-23T03:50:37.227Z,100580.00
2022-10-23T03:53:03.719Z,100581.81
2022-10-23T03:55:34.453Z,100582.72
2022-10-23T03:58:00.863Z,100583.56
2022-10-23T04:00:27.451Z,100581.81
2022-10-23T04:02:53.930Z,100586.22
2022-10-23T04:05:20.314Z,100597.47
2022-10-23T04:07:46.723Z,100597.41
2022-10-23T04:10:13.107Z,100589.63
2022-10-23T04:12:39.715Z,100588.81
2022-10-23T04:15:06.709Z,100587.00
2022-10-23T04:17:33.149Z,100587.00
2022-10-23T04:19:59.561Z,100593.06
2022-10-23T04:22:28.303Z,100586.09
2022-10-23T04:24:55.253Z,100580.94
2022-10-23T04:27:21.726Z,100586.22
2022-10-23T04:29:49.105Z,100585.34
2022-10-23T04:32:15.519Z,100583.59
2022-10-23T04:34:41.906Z,100581.00
2022-10-23T04:37:08.322Z,100574.84
2022-10-23T04:39:34.746Z,100572.22
2022-10-23T04:42:01.172Z,100565.22
2022-10-23T04:44:27.626Z,100565.19
2022-10-23T04:46:54.122Z,100560.81
2022-10-23T04:49:20.580Z,100555.50
2022-10-23T04:51:46.984Z,100555.47
2022-10-23T04:54:13.485Z,100561.63
2022-10-23T04:56:39.906Z,100556.41
2022-10-23T05:01:37.926Z,100540.72
2022-10-23T05:04:04.836Z,100546.84
2022-10-23T05:06:31.248Z,100538.97
2022-10-23T05:08:57.658Z,100540.72
2022-10-23T05:11:24.080Z,100540.81
2022-10-23T05:13:50.547Z,100533.88
2022-10-23T05:16:46.527Z,100530.44
2022-10-23T05:19:21.979Z,100527.75
2022-10-23T05:21:55.754Z,100523.38
2022-10-23T05:24:23.807Z,100529.47
2022-10-23T05:26:52.787Z,100521.53
2022-10-23T05:29:20.400Z,100520.63
2022-10-23T05:31:48.906Z,100511.91
2022-10-23T05:34:19.982Z,100511.84
2022-10-23T05:36:47.169Z,100510.09
2022-10-23T05:39:13.724Z,100503.00
2022-10-23T05:41:40.136Z,100497.75
2022-10-23T05:44:06.507Z,100491.69
2022-10-23T05:46:32.916Z,100492.56
2022-10-23T05:51:30.625Z,100500.38
2022-10-23T05:53:57.054Z,100499.53
2022-10-23T05:56:23.464Z,100494.28
2022-10-23T05:58:49.837Z,100492.41
2022-10-23T06:01:17.992Z,100492.41
2022-10-23T06:03:44.955Z,100493.22
2022-10-23T06:06:11.466Z,100493.22
2022-10-23T06:08:37.886Z,100481.88
2022-10-23T06:11:13.452Z,100478.31
2022-10-23T06:13:42.158Z,100479.19
2022-10-23T06:16:14.291Z,100478.31
2022-10-23T06:18:41.100Z,100476.50
2022-10-23T06:21:08.862Z,100479.13
2022-10-23T06:23:37.011Z,100473.81
2022-10-23T06:26:04.503Z,100471.19
2022-10-23T06:28:31.040Z,100483.34
2022-10-23T06:30:57.447Z,100467.56
2022-10-23T06:33:23.953Z,100468.44
2022-10-23T06:35:50.364Z,100470.16
2022-10-23T06:38:16.834Z,100460.50
2022-10-23T06:40:45.523Z,100455.22
2022-10-23T06:43:11.910Z,100468.28
2022-10-23T06:45:38.304Z,100473.50
2022-10-23T06:48:05.054Z,100471.66
2022-10-23T06:50:31.458Z,100462.00
2022-10-23T06:52:57.951Z,100461.91
2022-10-23T06:55:24.570Z,100446.94
2022-10-23T06:57:51.050Z,100448.66
2022-10-23T07:00:17.820Z,100447.72
2022-10-23T07:02:45.173Z,100451.09
2022-10-23T07:05:13.664Z,100450.19
2022-10-23T07:07:40.584Z,100450.97
2022-10-23T07:10:07.437Z,100448.28
2022-10-23T07:12:33.949Z,100455.16
2022-10-23T07:15:00.345Z,100457.59
2022-10-23T07:17:28.992Z,100458.41
2022-10-23T07:19:55.402Z,100450.38
2022-10-23T07:22:21.780Z,100455.44
2022-10-23T07:24:48.186Z,100459.75
2022-10-23T07:27:14.643Z,100452.56
2022-10-23T07:29:42.026Z,100450.47
2022-10-23T07:32:09.269Z,100453.03
2022-10-23T07:34:36.875Z,100443.06
2022-10-23T07:37:03.430Z,100444.69
2022-10-23T07:39:29.907Z,100445.28
2022-10-23T07:41:56.341Z,100439.03
2022-10-23T07:44:25.628Z,100429.03
2022-10-23T07:46:54.116Z,100422.81
2022-10-23T07:49:20.572Z,100427.16
2022-10-23T07:51:50.531Z,100422.59
2022-10-23T07:54:18.573Z,100425.75
2022-10-23T07:56:45.123Z,100425.63
2022-10-23T07:59:14.660Z,100426.28
2022-10-23T08:01:47.100Z,100416.47
2022-10-23T08:04:14.187Z,100410.81
2022-10-23T08:06:40.624Z,100412.22
2022-10-23T08:09:07.259Z,100416.28
2022-10-23T08:11:35.596Z,100403.75
2022-10-23T08:14:04.611Z,100403.50
2022-10-23T08:16:34.272Z,100408.53
2022-10-23T08:19:01.794Z,100409.09
2022-10-23T08:21:28.733Z,100406.91
2022-10-23T08:24:00.082Z,100409.03
2022-10-23T08:26:29.410Z,100411.38
2022-10-23T08:28:56.361Z,100407.56
2022-10-23T08:31:23.238Z,100407.28
2022-10-23T08:36:28.488Z,100411.00
2022-10-23T08:38:56.522Z,100413.53
2022-10-23T08:41:44.098Z,100414.25
2022-10-23T08:44:34.173Z,100413.16
2022-10-23T08:47:15.512Z,100421.72
2022-10-23T08:49:50.964Z,100418.44
2022-10-23T08:52:27.531Z,100417.75
2022-10-23T08:55:00.489Z,100404.66
2022-10-23T08:57:37.741Z,100402.22
2022-10-23T09:00:20.491Z,100399.25
2022-10-23T09:02:50.806Z,100395.28
2022-10-23T09:05:55.705Z,100401.94
2022-10-23T09:08:43.363Z,100393.56
2022-10-23T09:11:54.887Z,100386.50
2022-10-23T09:14:49.277Z,100383.84
2022-10-23T09:17:26.918Z,100375.88
2022-10-23T09:20:05.230Z,100370.13
2022-10-23T09:22:31.742Z,100370.00
2022-10-23T09:24:58.133Z,100357.38
2022-10-23T09:27:24.661Z,100350.38
2022-10-23T09:29:54.368Z,100337.91
2022-10-23T09:32:32.972Z,100344.13
2022-10-23T09:34:59.421Z,100342.47
2022-10-23T09:37:29.456Z,100330.94
2022-10-23T09:40:21.508Z,100333.41
2022-10-23T09:43:00.105Z,100321.72
2022-10-23T09:45:34.995Z,100323.78
2022-10-23T09:48:09.775Z,100313.91
2022-10-23T09:50:36.335Z,100317.84
2022-10-23T09:53:02.948Z,100317.16
2022-10-23T09:55:29.751Z,100317.72
2022-10-23T09:57:56.301Z,100307.94
2022-10-23T10:00:27.627Z,100306.78
2022-10-23T10:03:06.099Z,100307.34
2022-10-23T10:05:42.130Z,100295.38
2022-10-23T10:08:20.642Z,100298.00
2022-10-23T10:10:51.687Z,100294.25
2022-10-23T10:13:30.075Z,100298.78
2022-10-23T10:16:23.681Z,100291.16
2022-10-23T10:19:05.979Z,100276.97
2022-10-23T10:22:08.841Z,100275.94
2022-10-23T10:24:52.446Z,100282.84
2022-10-23T10:27:25.020Z,100277.66
2022-10-23T10:30:15.813Z,100279.81
2022-10-23T10:32:58.000Z,100282.03
2022-10-23T10:35:55.460Z,100279.81
2022-10-23T10:38:58.686Z,100277.94
2022-10-23T10:41:28.111Z,100274.25
2022-10-23T10:44:03.243Z,100265.09
2022-10-23T10:47:25.588Z,100254.44
2022-10-23T10:50:03.019Z,100253.72
2022-10-23T10:53:17.985Z,100241.88
2022-10-23T10:55:49.190Z,100231.31
2022-10-23T10:58:43.872Z,100226.97
2022-10-23T11:01:16.513Z,100229.22
2022-10-23T11:03:51.849Z,100221.03
2022-10-23T11:06:22.642Z,100215.94
2022-10-23T11:08:57.442Z,100212.53
2022-10-23T11:11:37.819Z,100205.34
2022-10-23T11:14:04.473Z,100190.75
2022-10-23T11:16:37.110Z,100207.56
2022-10-23T11:19:11.451Z,100203.88
2022-10-23T11:22:05.373Z,100192.63
2022-10-23T11:24:49.099Z,100201.41
2022-10-23T11:27:47.409Z,100198.69
2022-10-23T11:30:22.784Z,100199.88
2022-10-23T11:33:08.051Z,100193.56
2022-10-23T11:36:04.258Z,100171.69
2022-10-23T11:38:34.802Z,100162.06
2022-10-23T11:41:04.762Z,100151.22
2022-10-23T11:43:47.347Z,100158.19
2022-10-23T11:46:25.380Z,100168.09
2022-10-23T11:48:53.711Z,100164.66
2022-10-23T11:51:27.568Z,100176.53
2022-10-23T11:54:22.347Z,100158.03
2022-10-23T11:56:54.750Z,100156.09
2022-10-23T11:59:27.855Z,100144.41
2022-10-23T12:01:56.769Z,100146.03
2022-10-23T12:04:41.099Z,100156.19
2022-10-23T12:07:32.914Z,100151.34
2022-10-23T12:10:03.033Z,100148.88
2022-10-23T12:12:43.128Z,100151.63
2022-10-23T12:15:15.371Z,100140.25
2022-10-23T12:17:43.837Z,100140.66
2022-10-23T12:20:10.612Z,100134.09
2022-10-23T12:23:05.239Z,100121.00
2022-10-23T12:26:08.730Z,100112.47
2022-10-23T12:28:45.774Z,100118.19
2022-10-23T12:31:38.419Z,100113.97
2022-10-23T12:34:23.099Z,100115.78
2022-10-23T12:37:18.987Z,100117.06
2022-10-23T12:39:52.946Z,100105.28
2022-10-23T12:42:24.969Z,100103.22
2022-10-23T12:45:12.803Z,100094.16
2022-10-23T12:47:40.059Z,100092.63
2022-10-23T12:50:35.853Z,100097.34
2022-10-23T12:53:06.651Z,100089.41
2022-10-23T12:55:55.627Z,100089.91
2022-10-23T12:58:25.329Z,100093.41
2022-10-23T13:00:57.031Z,100103.22
2022-10-23T13:03:25.945Z,100090.75
2022-10-23T13:05:54.629Z,100077.59
2022-10-23T13:08:23.081Z,100074.16
2022-10-23T13:10:50.400Z,100059.22
2022-10-23T13:13:24.076Z,100061.22
2022-10-23T13:15:50.887Z,100061.41
2022-10-23T13:18:18.059Z,100066.91
2022-10-23T13:20:58.341Z,100068.91
2022-10-23T13:23:34.768Z,100058.56
2022-10-23T13:26:07.240Z,100045.69
2022-10-23T13:28:41.630Z,100028.09
2022-10-23T13:31:24.229Z,100016.50
2022-10-23T13:34:17.288Z,100013.84
2022-10-23T13:36:53.710Z,100010.41
2022-10-23T13:39:26.061Z,100007.00
2022-10-23T13:41:52.564Z,100016.66
2022-10-23T13:44:22.041Z,100008.81
2022-10-23T13:46:48.724Z,100000.88
2022-10-23T13:49:15.986Z,100005.56
2022-10-23T13:51:49.879Z,99994.06
2022-10-23T13:54:19.815Z,100003.00
2022-10-23T13:56:46.794Z,99992.50
2022-10-23T13:59:14.312Z,99978.25
2022-10-23T14:01:41.716Z,99972.94
2022-10-23T14:04:08.703Z,99967.75
2022-10-23T14:06:37.451Z,99974.75
2022-10-23T14:09:08.861Z,99970.22
2022-10-23T14:11:35.356Z,99965.19
2022-10-23T14:14:02.091Z,99982.53
2022-10-23T14:16:28.803Z,99977.59
2022-10-23T14:18:55.439Z,99977.84
2022-10-23T14:21:23.553Z,99966.69
2022-10-23T14:23:51.605Z,99972.63
2022-10-23T14:26:21.514Z,99967.75
2022-10-23T14:28:48.431Z,99958.47
2022-10-23T14:31:17.552Z,99964.44
2022-10-23T14:33:45.018Z,99948.66
2022-10-23T14:36:12.574Z,99946.00
2022-10-23T14:38:39.199Z,99945.31
2022-10-23T14:41:13.853Z,99939.88
2022-10-23T14:43:40.345Z,99941.81
2022-10-23T14:46:15.250Z,99931.69
2022-10-23T14:48:45.483Z,99931.53
2022-10-23T14:51:25.819Z,99926.59
2022-10-23T14:53:59.754Z,99919.50
2022-10-23T14:56:26.429Z,99935.09
2022-10-23T14:58:52.942Z,99945.97
2022-10-23T15:01:19.596Z,99955.88
2022-10-23T15:03:46.207Z,99961.44
2022-10-23T15:06:17.515Z,99952.66
2022-10-23T15:08:44.819Z,99982.78
2022-10-23T15:11:12.704Z,100001.22
2022-10-23T15:13:39.353Z,100006.00
2022-10-23T15:16:09.836Z,99979.13
2022-10-23T15:21:09.558Z,99960.06
2022-10-23T15:23:39.949Z,99962.09
2022-10-23T15:26:14.309Z,99992.34
2022-10-23T15:28:40.713Z,100003.72
2022-10-23T15:31:29.180Z,100015.44
2022-10-23T15:33:59.459Z,100010.75
2022-10-23T15:36:26.356Z,100016.38
2022-10-23T15:38:52.891Z,99996.25
2022-10-23T15:41:39.325Z,99994.69
2022-10-23T15:44:06.917Z,99994.03
2022-10-23T15:46:33.992Z,99982.78
2022-10-23T15:49:00.734Z,99992.66
2022-10-23T15:51:27.596Z,99987.78
2022-10-23T15:53:54.231Z,99980.78
2022-10-23T15:56:20.640Z,99975.69
2022-10-23T15:58:47.051Z,99982.06
2022-10-23T16:01:13.606Z,100002.19
2022-10-23T16:03:40.122Z,100017.78
2022-10-23T16:06:09.586Z,100025.13
2022-10-23T16:08:36.311Z,100021.66
2022-10-23T16:11:03.662Z,100017.50
2022-10-23T16:13:30.321Z,100037.16
2022-10-23T16:15:56.734Z,100031.19
2022-10-23T16:18:23.269Z,100024.19
2022-10-23T16:20:55.496Z,100020.00
2022-10-23T16:23:22.235Z,100012.16
2022-10-23T16:25:48.676Z,100001.59
2022-10-23T16:28:15.129Z,99994.69
2022-10-23T16:30:43.282Z,99994.06
2022-10-23T16:33:10.009Z,99986.41
2022-10-23T16:35:36.951Z,99993.47
2022-10-23T16:38:03.743Z,99994.38
2022-10-23T16:40:30.233Z,100006.91
2022-10-23T16:42:58.013Z,100035.00
2022-10-23T16:45:24.441Z,100041.13
2022-10-23T16:47:50.896Z,100046.59
2022-10-23T16:50:17.766Z,100069.50
2022-10-23T16:52:44.475Z,100081.94
2022-10-23T16:55:11.120Z,100079.34
2022-10-23T16:57:37.768Z,100059.97
2022-10-23T17:00:06.017Z,100038.75
2022-10-23T17:02:32.878Z,99999.28
2022-10-23T17:04:59.725Z,99951.00
2022-10-23T17:07:26.187Z,99964.38
2022-10-23T17:09:52.606Z,99968.94
2022-10-23T17:12:19.042Z,99953.97
2022-10-23T17:14:45.420Z,99937.22
2022-10-23T17:17:12.012Z,99927.50
2022-10-23T17:19:45.673Z,99941.66
2022-10-23T17:22:13.795Z,99964.53
2022-10-23T17:24:41.875Z,99960.19
2022-10-23T17:27:08.759Z,99964.53
2022-10-23T17:29:35.335Z,99965.47
2022-10-23T17:32:01.891Z,99948.81
2022-10-23T17:34:28.383Z,99932.31
2022-10-23T17:36:56.048Z,99928.81
2022-10-23T17:39:25.928Z,99920.06
2022-10-23T17:41:53.188Z,99955.22
2022-10-23T17:44:20.006Z,99960.41
2022-10-23T17:46:46.480Z,99975.47
2022-10-23T17:49:12.953Z,99975.38
2022-10-23T17:51:39.948Z,99993.78
2022-10-23T17:54:08.992Z,99987.72
2022-10-23T17:56:37.620Z,99975.47
2022-10-23T17:59:14.425Z,99969.38
2022-10-23T18:01:43.575Z,99966.75
2022-10-23T18:04:10.412Z,99978.25
2022-10-23T18:06:42.314Z,99973.81
2022-10-23T18:09:08.974Z,99966.84
2022-10-23T18:11:40.645Z,99961.56
2022-10-23T18:14:10.504Z,99955.44
2022-10-23T18:16:39.561Z,99954.50
2022-10-23T18:19:06.339Z,99937.91
2022-10-23T18:21:32.767Z,99935.34
2022-10-23T18:24:00.209Z,99942.31
2022-10-23T18:26:30.055Z,99942.41
2022-10-23T18:28:59.051Z,99928.44
2022-10-23T18:31:27.633Z,99931.94
2022-10-23T18:33:59.621Z,99919.72
2022-10-23T18:36:29.485Z,99924.16
2022-10-23T18:38:56.367Z,99922.53
2022-10-23T18:41:23.720Z,99917.19
2022-10-23T18:43:51.668Z,99924.25
2022-10-23T18:46:19.293Z,99937.53
2022-10-23T18:48:47.373Z,99938.38
2022-10-23T18:51:19.879Z,99930.53
2022-10-23T18:53:47.096Z,99936.81
2022-10-23T18:56:14.908Z,99926.41
2022-10-23T18:58:41.605Z,99935.25
2022-10-23T19:01:08.198Z,99935.25
2022-10-23T19:03:34.716Z,99937.13
2022-10-23T19:06:01.235Z,99934.59
2022-10-23T19:08:28.826Z,99923.19
2022-10-23T19:10:57.387Z,99913.53
2022-10-23T19:13:23.861Z,99918.81
2022-10-23T19:15:50.301Z,99918.91
2022-10-23T19:18:16.940Z,99918.81
2022-10-23T19:20:44.062Z,99915.28
2022-10-23T19:23:12.811Z,99911.75
2022-10-23T19:25:45.248Z,99914.63
2022-10-23T19:28:11.713Z,99911.16
2022-10-23T19:30:38.198Z,99911.38
2022-10-23T19:33:04.774Z,99907.97
2022-10-23T19:35:31.224Z,99912.47
2022-10-23T19:37:57.618Z,99906.47
2022-10-23T19:40:24.268Z,99925.81
2022-10-23T19:42:50.922Z,99909.38
2022-10-23T19:45:17.718Z,99920.00
2022-10-23T19:47:46.101Z,99930.63
2022-10-23T19:50:12.895Z,99926.41
2022-10-23T19:52:39.427Z,99921.31
2022-10-23T19:55:06.688Z,99923.09
2022-10-23T19:57:37.012Z,99943.16
2022-10-23T20:00:05.683Z,99917.56
2022-10-23T20:05:08.720Z,99919.44
2022-10-23T20:07:37.001Z,99925.72
2022-10-23T20:10:06.108Z,99917.00
2022-10-23T20:12:33.123Z,99918.78
2022-10-23T20:15:00.040Z,99926.56
2022-10-23T20:17:26.476Z,99924.78
2022-10-23T20:19:52.911Z,99940.53
2022-10-23T20:22:19.728Z,99953.53
2022-10-23T20:24:46.122Z,99961.31
2022-10-23T20:27:14.611Z,99983.09
2022-10-23T20:29:42.414Z,99990.09
2022-10-23T20:32:08.978Z,99999.78
2022-10-23T20:34:35.460Z,100001.50
2022-10-23T20:37:01.912Z,100019.09
2022-10-23T20:39:29.706Z,100034.91
2022-10-23T20:41:56.633Z,100047.75
2022-10-23T20:44:23.523Z,100058.22
2022-10-23T20:46:50.798Z,100070.34
2022-10-23T20:49:18.597Z,100067.63
2022-10-23T20:51:45.761Z,100049.00
2022-10-23T20:54:12.222Z,100028.91
2022-10-23T20:56:39.586Z,100036.13
2022-10-23T20:59:10.105Z,100030.22
2022-10-23T21:01:40.123Z,100029.44
2022-10-23T21:04:06.703Z,100019.94
2022-10-23T21:06:45.868Z,100007.84
2022-10-23T21:09:18.515Z,100012.28
2022-10-23T21:11:44.939Z,100013.22
2022-10-23T21:14:11.708Z,100014.13
2022-10-23T21:16:40.942Z,100011.56
2022-10-23T21:19:10.311Z,100016.97
2022-10-23T21:21:36.727Z,100010.94
2022-10-23T21:24:07.666Z,100004.09
2022-10-23T21:26:34.382Z,100008.59
2022-10-23T21:29:17.383Z,100004.41
2022-10-23T21:31:45.454Z,100012.44
2022-10-23T21:34:12.101Z,100023.13
2022-10-23T21:36:53.979Z,100025.78
2022-10-23T21:39:25.331Z,100024.19
2022-10-23T21:41:51.787Z,100017.22
2022-10-23T21:44:18.281Z,100018.91
2022-10-23T21:46:44.732Z,100019.78
2022-10-23T21:49:11.750Z,100013.72
2022-10-23T21:51:38.965Z,100017.28
2022-10-23T21:54:07.051Z,100012.09
2022-10-23T21:56:39.951Z,100026.22
2022-10-23T21:59:12.356Z,100024.50
2022-10-23T22:01:41.654Z,100019.34
2022-10-23T22:04:09.724Z,100033.47
2022-10-23T22:06:36.883Z,100023.84
2022-10-23T22:09:04.219Z,100023.06
2022-10-23T22:11:30.665Z,100016.97
2022-10-23T22:13:59.205Z,100018.75
2022-10-23T22:16:26.137Z,100006.53
2022-10-23T22:18:52.839Z,100017.03
2022-10-23T22:21:25.272Z,100015.31
2022-10-23T22:23:54.636Z,100014.53
2022-10-23T22:26:30.589Z,100025.22
2022-10-23T22:29:00.107Z,100018.25
2022-10-23T22:31:29.572Z,100013.81
2022-10-23T22:33:57.094Z,100012.81
2022-10-23T22:36:24.410Z,100010.94
2022-10-23T22:38:51.286Z,100001.25
2022-10-23T22:41:18.383Z,100007.53
2022-10-23T22:43:45.002Z,100000.56
2022-10-23T22:46:17.171Z,100000.41
2022-10-23T22:48:44.854Z,100005.63
2022-10-23T22:51:13.358Z,99997.72
2022-10-23T22:53:39.813Z,99996.88
2022-10-23T22:56:12.051Z,100000.50
2022-10-23T22:58:38.675Z,99998.88
2022-10-23T23:01:13.973Z,99989.34
2022-10-23T23:03:41.230Z,100009.31
2022-10-23T23:06:08.808Z,100012.88
2022-10-23T23:08:36.896Z,99998.09
2022-10-23T23:11:03.713Z,99988.41
2022-10-23T23:13:30.351Z,99993.59
2022-10-23T23:15:57.621Z,99996.06
2022-10-23T23:18:24.537Z,100003.06
2022-10-23T23:20:51.016Z,100004.72
2022-10-23T23:23:18.210Z,100002.94
2022-10-23T23:25:49.628Z,100015.25
2022-10-23T23:28:18.891Z,100000.28
2022-10-23T23:33:23.097Z,100007.09
2022-10-23T23:35:49.575Z,100007.03
2022-10-23T23:38:15.980Z,100012.25
2022-10-23T23:40:51.295Z,100010.41
2022-10-23T23:43:18.103Z,100010.41
2022-10-23T23:45:44.599Z,100002.50
2022-10-23T23:48:11.024Z,99998.16
2022-10-23T23:50:37.948Z,99997.34
2022-10-23T23:53:04.332Z,99989.69
2022-10-23T23:55:30.845Z,99990.53
2022-10-23T23:57:57.238Z,99987.97
